Hermann - S — V2EI6 — position and weather

sailwx.info

Track history (hours):
 
Tides and Currents Weather Stations Pressure Air Temp Water Temp Dewpoint Dewpoint Depression Visibility Wind Speed Wind Dir Waves Ship Positions

Hermann - S

Last reported at 2016-Jul-25 15:16 UTC. Time now 2016-Jul-25 22:04 UTC.
Position N 36°06' W 005°12'.

Length 190 m; draft 10.7 m.

Type: Ship. MMSI: 305441000.

Date/timePositionNaut miles runAvg speedWind from/ knotsBaromVisibWave heightAir tempDewpointWater temp
2016-Jul-25 15:16N 36°06' W 005°12'811.7
2016-Jul-25 14:33N 36°04' W 005°22'2 2.2
2016-Jul-25 13:33N 36°05' W 005°25'0 0.1
2016-Jul-25 12:30N 36°05' W 005°25'0 0.1
2016-Jul-25 11:33N 36°05' W 005°25'0 0.1
2016-Jul-25 10:27N 36°05' W 005°25'0 0.0
2016-Jul-25 09:27N 36°05' W 005°25'0 0.1
2016-Jul-25 08:33N 36°05' W 005°24'0 0.0
2016-Jul-25 07:33N 36°05' W 005°25'3 3.1
2016-Jul-25 06:33N 36°07' W 005°22'0 0.1
2016-Jul-25 05:27N 36°07' W 005°22'0 0.0
2016-Jul-25 04:33N 36°07' W 005°22'0 0.1
2016-Jul-25 03:33N 36°07' W 005°22'0 0.2
2016-Jul-25 02:33N 36°07' W 005°22'0 0.1
2016-Jul-25 01:33N 36°07' W 005°22'0 0.1
2016-Jul-25 00:30N 36°07' W 005°22'0 0.2
2016-Jul-24 23:33N 36°07' W 005°22'0 0.2
2016-Jul-24 22:33N 36°07' W 005°22'9 8.5
2016-Jul-24 21:34N 35°59' W 005°25'4211.9
2016-Jul-24 18:03N 35°42' W 006°12'5 9.7
2016-Jul-24 17:33N 35°38' W 006°16'1010.2
2016-Jul-24 16:33N 35°31' W 006°25'3210.7
2016-Jul-24 13:33N 35°07' W 006°51'1411.5
2016-Jul-24 12:20N 34°57' W 007°02'2111.8
2016-Jul-24 10:33N 34°41' W 007°20'1711.9
2016-Jul-24 09:07N 34°29' W 007°35'712.1
2016-Jul-24 08:33N 34°24' W 007°40'1512.0
2016-Jul-24 07:17N 34°13' W 007°53'3211.1
2016-Jul-24 04:23N 33°50' W 008°20'7210.1
2016-Jul-23 21:15N 32°57' W 009°18'7 9.6
2016-Jul-23 20:31N 32°52' W 009°24'9 9.5
2016-Jul-23 19:33N 32°45' W 009°32'10 9.9
2016-Jul-23 18:33N 32°38' W 009°40'10 9.9
2016-Jul-23 17:33N 32°31' W 009°48'10 9.8
2016-Jul-23 16:30N 32°23' W 009°56'118 9.6
2016-Jul-23 04:11N 30°51' W 011°22'6 8.6
2016-Jul-23 03:26N 30°46' W 011°26'8 8.7
2016-Jul-23 02:27N 30°38' W 011°31'9 8.7
2016-Jul-23 01:27N 30°31' W 011°37'8 8.6
2016-Jul-23 00:32N 30°25' W 011°42'9 8.7
2016-Jul-22 23:33N 30°17' W 011°48'9 8.6
2016-Jul-22 22:33N 30°10' W 011°53'9 8.8
2016-Jul-22 21:33N 30°03' W 011°59'9 8.7
2016-Jul-22 20:33N 29°56' W 012°04'9 8.7
2016-Jul-22 19:30N 29°48' W 012°10'8 8.5
2016-Jul-22 18:33N 29°41' W 012°16'8 8.3
2016-Jul-22 17:33N 29°35' W 012°21'8 8.4
2016-Jul-22 16:33N 29°28' W 012°26'8 8.4
2016-Jul-22 15:33N 29°21' W 012°31'9 8.5
2016-Jul-22 14:33N 29°14' W 012°37'9 9.0
2016-Jul-22 13:33N 29°06' W 012°42'10 9.3
2016-Jul-22 12:31N 28°58' W 012°49'11 9.0
2016-Jul-22 11:17N 28°49' W 012°56'7 9.0
2016-Jul-22 10:32N 28°43' W 013°00'1010.3
2016-Jul-22 09:33N 28°35' W 013°06'1110.7
2016-Jul-22 08:32N 28°26' W 013°13'10 9.8
2016-Jul-22 07:33N 28°18' W 013°19'29 9.5
2016-Jul-22 04:33N 27°54' W 013°37'1010.0
2016-Jul-22 03:33N 27°46' W 013°44'1010.3
2016-Jul-22 02:33N 27°38' W 013°51'1110.7
2016-Jul-22 01:33N 27°29' W 013°58'1110.9
2016-Jul-22 00:33N 27°20' W 014°05'1110.7
2016-Jul-21 23:33N 27°11' W 014°12'1110.6
2016-Jul-21 22:34N 27°03' W 014°19'1310.8
2016-Jul-21 21:19N 26°52' W 014°27'1910.5
2016-Jul-21 19:33N 26°36' W 014°39'  
2016-Jul-17 00:33N 09°31' W 013°43'0 0.0
2016-Jul-16 23:33N 09°31' W 013°43'0 0.0
2016-Jul-16 22:33N 09°31' W 013°43'0 0.0
2016-Jul-16 21:33N 09°31' W 013°43'0 0.0
2016-Jul-16 20:33N 09°31' W 013°43'0 0.0
2016-Jul-16 19:33N 09°31' W 013°43'0 0.0
2016-Jul-16 18:33N 09°31' W 013°43'0 0.0
2016-Jul-16 17:33N 09°31' W 013°43'0 0.0
2016-Jul-16 16:33N 09°31' W 013°43'0 0.0
2016-Jul-16 15:33N 09°31' W 013°43'0 0.0
2016-Jul-16 14:34N 09°31' W 013°43'0 0.0
2016-Jul-16 13:31N 09°31' W 013°43'0 0.0
2016-Jul-16 12:33N 09°31' W 013°43'0 0.0
2016-Jul-16 11:34N 09°31' W 013°43'0 0.0
2016-Jul-16 10:07N 09°31' W 013°43'0 0.0
2016-Jul-16 09:34N 09°31' W 013°43'0 0.0
2016-Jul-16 08:31N 09°31' W 013°43'0 0.0
2016-Jul-16 07:34N 09°31' W 013°43'0 0.0
2016-Jul-16 06:34N 09°31' W 013°43'0 0.0
2016-Jul-16 04:32N 09°31' W 013°43'0 0.0
2016-Jul-16 03:34N 09°31' W 013°43'0 0.0
2016-Jul-16 02:34N 09°31' W 013°43'0 0.0
2016-Jul-16 01:34N 09°31' W 013°43'0 0.0
2016-Jul-16 00:34N 09°31' W 013°43'0 0.0
2016-Jul-15 23:34N 09°31' W 013°43'0 0.0
2016-Jul-15 22:33N 09°31' W 013°43'0 0.0
2016-Jul-15 21:34N 09°31' W 013°43'0 0.0
2016-Jul-15 20:34N 09°31' W 013°43'0 0.0
2016-Jul-15 19:33N 09°31' W 013°43'0 0.0
2016-Jul-15 18:34N 09°31' W 013°43'0 0.0
2016-Jul-15 17:33N 09°31' W 013°43'0 0.0
2016-Jul-15 16:31N 09°31' W 013°43'0 0.0
2016-Jul-15 15:31N 09°31' W 013°43'  
Track history (hours):
 
Tides and Currents Weather Stations Pressure Air Temp Water Temp Dewpoint Dewpoint Depression Visibility Wind Speed Wind Dir Waves Ship Positions

Hermann - S

Last reported at 2016-Jul-25 15:16 UTC. Time now 2016-Jul-25 22:04 UTC.
Position N 36°06' W 005°12'.

Length 190 m; draft 10.7 m.

Type: Ship. MMSI: 305441000.

Date/timePositionNaut miles runAvg speedWind from/ knotsBaromVisibWave heightAir tempDewpointWater temp
2016-Jul-25 15:16N 36°06' W 005°12'811.7
2016-Jul-25 14:33N 36°04' W 005°22'2 2.2
2016-Jul-25 13:33N 36°05' W 005°25'0 0.1
2016-Jul-25 12:30N 36°05' W 005°25'0 0.1
2016-Jul-25 11:33N 36°05' W 005°25'0 0.1
2016-Jul-25 10:27N 36°05' W 005°25'0 0.0
2016-Jul-25 09:27N 36°05' W 005°25'0 0.1
2016-Jul-25 08:33N 36°05' W 005°24'0 0.0
2016-Jul-25 07:33N 36°05' W 005°25'3 3.1
2016-Jul-25 06:33N 36°07' W 005°22'0 0.1
2016-Jul-25 05:27N 36°07' W 005°22'0 0.0
2016-Jul-25 04:33N 36°07' W 005°22'0 0.1
2016-Jul-25 03:33N 36°07' W 005°22'0 0.2
2016-Jul-25 02:33N 36°07' W 005°22'0 0.1
2016-Jul-25 01:33N 36°07' W 005°22'0 0.1
2016-Jul-25 00:30N 36°07' W 005°22'0 0.2
2016-Jul-24 23:33N 36°07' W 005°22'0 0.2
2016-Jul-24 22:33N 36°07' W 005°22'9 8.5
2016-Jul-24 21:34N 35°59' W 005°25'4211.9
2016-Jul-24 18:03N 35°42' W 006°12'5 9.7
2016-Jul-24 17:33N 35°38' W 006°16'1010.2
2016-Jul-24 16:33N 35°31' W 006°25'3210.7
2016-Jul-24 13:33N 35°07' W 006°51'1411.5
2016-Jul-24 12:20N 34°57' W 007°02'2111.8
2016-Jul-24 10:33N 34°41' W 007°20'1711.9
2016-Jul-24 09:07N 34°29' W 007°35'712.1
2016-Jul-24 08:33N 34°24' W 007°40'1512.0
2016-Jul-24 07:17N 34°13' W 007°53'3211.1
2016-Jul-24 04:23N 33°50' W 008°20'7210.1
2016-Jul-23 21:15N 32°57' W 009°18'7 9.6
2016-Jul-23 20:31N 32°52' W 009°24'9 9.5
2016-Jul-23 19:33N 32°45' W 009°32'10 9.9
2016-Jul-23 18:33N 32°38' W 009°40'10 9.9
2016-Jul-23 17:33N 32°31' W 009°48'10 9.8
2016-Jul-23 16:30N 32°23' W 009°56'118 9.6
2016-Jul-23 04:11N 30°51' W 011°22'6 8.6
2016-Jul-23 03:26N 30°46' W 011°26'8 8.7
2016-Jul-23 02:27N 30°38' W 011°31'9 8.7
2016-Jul-23 01:27N 30°31' W 011°37'8 8.6
2016-Jul-23 00:32N 30°25' W 011°42'9 8.7
2016-Jul-22 23:33N 30°17' W 011°48'9 8.6
2016-Jul-22 22:33N 30°10' W 011°53'9 8.8
2016-Jul-22 21:33N 30°03' W 011°59'9 8.7
2016-Jul-22 20:33N 29°56' W 012°04'9 8.7
2016-Jul-22 19:30N 29°48' W 012°10'8 8.5
2016-Jul-22 18:33N 29°41' W 012°16'8 8.3
2016-Jul-22 17:33N 29°35' W 012°21'8 8.4
2016-Jul-22 16:33N 29°28' W 012°26'8 8.4
2016-Jul-22 15:33N 29°21' W 012°31'9 8.5
2016-Jul-22 14:33N 29°14' W 012°37'9 9.0
2016-Jul-22 13:33N 29°06' W 012°42'10 9.3
2016-Jul-22 12:31N 28°58' W 012°49'11 9.0
2016-Jul-22 11:17N 28°49' W 012°56'7 9.0
2016-Jul-22 10:32N 28°43' W 013°00'1010.3
2016-Jul-22 09:33N 28°35' W 013°06'1110.7
2016-Jul-22 08:32N 28°26' W 013°13'10 9.8
2016-Jul-22 07:33N 28°18' W 013°19'29 9.5
2016-Jul-22 04:33N 27°54' W 013°37'1010.0
2016-Jul-22 03:33N 27°46' W 013°44'1010.3
2016-Jul-22 02:33N 27°38' W 013°51'1110.7
2016-Jul-22 01:33N 27°29' W 013°58'1110.9
2016-Jul-22 00:33N 27°20' W 014°05'1110.7
2016-Jul-21 23:33N 27°11' W 014°12'1110.6
2016-Jul-21 22:34N 27°03' W 014°19'1310.8
2016-Jul-21 21:19N 26°52' W 014°27'1910.5
2016-Jul-21 19:33N 26°36' W 014°39'  
2016-Jul-17 00:33N 09°31' W 013°43'0 0.0
2016-Jul-16 23:33N 09°31' W 013°43'0 0.0
2016-Jul-16 22:33N 09°31' W 013°43'0 0.0
2016-Jul-16 21:33N 09°31' W 013°43'0 0.0
2016-Jul-16 20:33N 09°31' W 013°43'0 0.0
2016-Jul-16 19:33N 09°31' W 013°43'0 0.0
2016-Jul-16 18:33N 09°31' W 013°43'0 0.0
2016-Jul-16 17:33N 09°31' W 013°43'0 0.0
2016-Jul-16 16:33N 09°31' W 013°43'0 0.0
2016-Jul-16 15:33N 09°31' W 013°43'0 0.0
2016-Jul-16 14:34N 09°31' W 013°43'0 0.0
2016-Jul-16 13:31N 09°31' W 013°43'0 0.0
2016-Jul-16 12:33N 09°31' W 013°43'0 0.0
2016-Jul-16 11:34N 09°31' W 013°43'0 0.0
2016-Jul-16 10:07N 09°31' W 013°43'0 0.0
2016-Jul-16 09:34N 09°31' W 013°43'0 0.0
2016-Jul-16 08:31N 09°31' W 013°43'0 0.0
2016-Jul-16 07:34N 09°31' W 013°43'0 0.0
2016-Jul-16 06:34N 09°31' W 013°43'0 0.0
2016-Jul-16 04:32N 09°31' W 013°43'0 0.0
2016-Jul-16 03:34N 09°31' W 013°43'0 0.0
2016-Jul-16 02:34N 09°31' W 013°43'0 0.0
2016-Jul-16 01:34N 09°31' W 013°43'0 0.0
2016-Jul-16 00:34N 09°31' W 013°43'0 0.0
2016-Jul-15 23:34N 09°31' W 013°43'0 0.0
2016-Jul-15 22:33N 09°31' W 013°43'0 0.0
2016-Jul-15 21:34N 09°31' W 013°43'0 0.0
2016-Jul-15 20:34N 09°31' W 013°43'0 0.0
2016-Jul-15 19:33N 09°31' W 013°43'0 0.0
2016-Jul-15 18:34N 09°31' W 013°43'0 0.0
2016-Jul-15 17:33N 09°31' W 013°43'0 0.0
2016-Jul-15 16:31N 09°31' W 013°43'0 0.0
2016-Jul-15 15:31N 09°31' W 013°43'  

Dump ship's entire track history